createdAt,value
2023-02-25T00:00:11.067Z,7.57
2023-02-25T00:02:47.476Z,7.62
2023-02-25T00:05:21.877Z,7.59
2023-02-25T00:07:54.957Z,7.61
2023-02-25T00:10:28.057Z,7.62
2023-02-25T00:13:17.096Z,7.60
2023-02-25T00:15:50.793Z,7.64
2023-02-25T00:18:23.572Z,7.65
2023-02-25T00:20:57.707Z,7.68
2023-02-25T00:23:30.560Z,7.69
2023-02-25T00:26:05.339Z,7.76
2023-02-25T00:28:39.882Z,7.70
2023-02-25T00:31:15.512Z,7.66
2023-02-25T00:33:48.777Z,7.67
2023-02-25T00:36:24.876Z,7.61
2023-02-25T00:38:58.867Z,7.69
2023-02-25T00:41:31.710Z,7.60
2023-02-25T00:44:05.124Z,7.59
2023-02-25T00:46:38.046Z,7.48
2023-02-25T00:49:13.358Z,7.39
2023-02-25T00:51:51.160Z,7.38
2023-02-25T00:54:53.082Z,7.48
2023-02-25T00:57:25.984Z,7.62
2023-02-25T00:59:58.674Z,7.55
2023-02-25T01:02:31.698Z,7.47
2023-02-25T01:05:05.047Z,7.46
2023-02-25T01:07:39.668Z,7.62
2023-02-25T01:10:12.655Z,7.50
2023-02-25T01:12:45.740Z,7.45
2023-02-25T01:15:18.502Z,7.52
2023-02-25T01:17:51.295Z,7.41
2023-02-25T01:20:24.483Z,7.35
2023-02-25T01:22:59.037Z,7.42
2023-02-25T01:25:31.930Z,7.41
2023-02-25T01:28:06.727Z,7.52
2023-02-25T01:30:39.522Z,7.52
2023-02-25T01:33:12.383Z,7.52
2023-02-25T01:35:45.351Z,7.50
2023-02-25T01:38:19.952Z,7.54
2023-02-25T01:40:58.986Z,7.52
2023-02-25T01:43:31.768Z,7.42
2023-02-25T01:46:04.768Z,7.49
2023-02-25T01:48:40.547Z,7.43
2023-02-25T01:51:14.007Z,7.56
2023-02-25T01:53:49.328Z,7.54
2023-02-25T01:56:26.178Z,7.57
2023-02-25T01:59:00.821Z,7.57
2023-02-25T02:01:35.844Z,7.50
2023-02-25T02:04:14.991Z,7.47
2023-02-25T02:06:50.208Z,7.54
2023-02-25T02:09:28.450Z,7.46
2023-02-25T02:12:04.305Z,7.47
2023-02-25T02:14:39.956Z,7.43
2023-02-25T02:17:25.324Z,7.38
2023-02-25T02:20:13.337Z,7.35
2023-02-25T02:22:55.578Z,7.38
2023-02-25T02:26:05.484Z,7.46
2023-02-25T02:29:19.367Z,7.36
2023-02-25T02:32:08.050Z,7.49
2023-02-25T02:34:47.409Z,7.39
2023-02-25T02:37:28.826Z,7.49
2023-02-25T02:40:17.393Z,7.49
2023-02-25T02:43:04.972Z,7.50
2023-02-25T02:45:49.117Z,7.47
2023-02-25T02:48:29.556Z,7.51
2023-02-25T02:51:07.310Z,7.52
2023-02-25T02:53:45.291Z,7.50
2023-02-25T02:56:23.220Z,7.56
2023-02-25T02:59:00.575Z,7.58
2023-02-25T03:01:38.386Z,7.54
2023-02-25T03:04:20.599Z,7.44
2023-02-25T03:06:57.074Z,7.38
2023-02-25T03:09:34.714Z,7.31
2023-02-25T03:12:07.995Z,7.33
2023-02-25T03:14:41.533Z,7.29
2023-02-25T03:17:17.825Z,7.34
2023-02-25T03:20:06.520Z,7.34
2023-02-25T03:22:42.177Z,7.40
2023-02-25T03:25:23.447Z,7.36
2023-02-25T03:27:58.654Z,7.39
2023-02-25T03:30:38.865Z,7.36
2023-02-25T03:33:20.026Z,7.29
2023-02-25T03:35:58.078Z,7.35
2023-02-25T03:38:34.279Z,7.42
2023-02-25T03:41:08.307Z,7.34
2023-02-25T03:43:47.403Z,7.34
2023-02-25T03:46:22.920Z,7.40
2023-02-25T03:48:59.864Z,7.35
2023-02-25T03:51:36.879Z,7.34
2023-02-25T03:54:09.800Z,7.36
2023-02-25T03:56:43.783Z,7.19
2023-02-25T03:59:18.084Z,7.27
2023-02-25T04:01:54.415Z,7.13
2023-02-25T04:04:27.597Z,7.23
2023-02-25T04:07:01.784Z,7.30
2023-02-25T04:09:35.121Z,7.34
2023-02-25T04:12:08.401Z,7.33
2023-02-25T04:14:41.182Z,7.34
2023-02-25T04:17:14.637Z,7.37
2023-02-25T04:19:47.333Z,7.37
2023-02-25T04:22:21.496Z,7.37
2023-02-25T04:24:54.952Z,7.32
2023-02-25T04:27:28.610Z,7.23
2023-02-25T04:30:01.491Z,7.27
2023-02-25T04:32:34.268Z,7.10
2023-02-25T04:35:11.730Z,7.24
2023-02-25T04:37:48.108Z,7.16
2023-02-25T04:40:22.846Z,7.23
2023-02-25T04:42:55.867Z,7.27
2023-02-25T04:45:28.959Z,7.29
2023-02-25T04:48:01.829Z,7.28
2023-02-25T04:50:35.172Z,7.29
2023-02-25T04:53:09.919Z,7.28
2023-02-25T04:55:42.637Z,7.19
2023-02-25T04:58:15.758Z,7.15
2023-02-25T05:00:49.160Z,7.19
2023-02-25T05:03:21.963Z,7.16
2023-02-25T05:05:54.734Z,7.23
2023-02-25T05:08:29.170Z,7.17
2023-02-25T05:11:02.730Z,7.22
2023-02-25T05:13:35.537Z,7.22
2023-02-25T05:16:11.516Z,7.25
2023-02-25T05:18:46.145Z,7.16
2023-02-25T05:21:21.094Z,7.18
2023-02-25T05:23:55.320Z,7.15
2023-02-25T05:26:28.056Z,7.21
2023-02-25T05:29:00.956Z,7.24
2023-02-25T05:31:33.807Z,7.24
2023-02-25T05:34:07.460Z,7.17
2023-02-25T05:36:41.296Z,7.18
2023-02-25T05:39:17.892Z,7.21
2023-02-25T05:41:51.813Z,7.16
2023-02-25T05:44:25.044Z,7.20
2023-02-25T05:46:57.917Z,7.21
2023-02-25T05:49:30.831Z,7.17
2023-02-25T05:52:03.355Z,7.19
2023-02-25T05:54:39.012Z,7.18
2023-02-25T05:57:14.095Z,7.18
2023-02-25T05:59:48.125Z,7.14
2023-02-25T06:02:21.033Z,7.04
2023-02-25T06:04:53.916Z,6.96
2023-02-25T06:07:27.156Z,7.02
2023-02-25T06:10:01.882Z,7.02
2023-02-25T06:12:38.186Z,7.14
2023-02-25T06:15:12.002Z,7.18
2023-02-25T06:17:45.122Z,7.19
2023-02-25T06:20:18.742Z,7.24
2023-02-25T06:22:51.697Z,7.24
2023-02-25T06:25:26.587Z,7.21
2023-02-25T06:28:00.309Z,7.27
2023-02-25T06:30:33.441Z,7.24
2023-02-25T06:33:06.283Z,7.20
2023-02-25T06:35:39.049Z,7.14
2023-02-25T06:38:11.834Z,7.15
2023-02-25T06:40:50.002Z,7.17
2023-02-25T06:43:23.171Z,7.15
2023-02-25T06:45:55.981Z,7.17
2023-02-25T06:48:28.866Z,7.11
2023-02-25T06:51:02.974Z,6.92
2023-02-25T06:53:35.999Z,6.92
2023-02-25T06:56:15.903Z,6.86
2023-02-25T06:58:49.113Z,6.87
2023-02-25T07:01:22.852Z,6.90
2023-02-25T07:03:58.169Z,6.91
2023-02-25T07:06:31.044Z,6.91
2023-02-25T07:09:03.774Z,6.93
2023-02-25T07:11:38.723Z,6.75
2023-02-25T07:14:14.203Z,7.05
2023-02-25T07:16:47.386Z,6.99
2023-02-25T07:19:20.083Z,7.01
2023-02-25T07:21:52.829Z,7.02
2023-02-25T07:24:27.083Z,6.96
2023-02-25T07:27:04.576Z,6.91
2023-02-25T07:29:37.333Z,6.90
2023-02-25T07:32:10.213Z,6.88
2023-02-25T07:34:43.178Z,6.95
2023-02-25T07:37:16.015Z,6.99
2023-02-25T07:39:48.972Z,6.91
2023-02-25T07:42:23.288Z,7.00
2023-02-25T07:44:56.121Z,6.94
2023-02-25T07:47:29.062Z,6.94
2023-02-25T07:50:06.758Z,6.91
2023-02-25T07:52:39.818Z,6.99
2023-02-25T07:55:13.255Z,6.95
2023-02-25T07:57:48.954Z,7.01
2023-02-25T08:00:22.336Z,7.09
2023-02-25T08:02:55.441Z,7.02
2023-02-25T08:05:28.460Z,7.11
2023-02-25T08:08:01.796Z,7.11
2023-02-25T08:10:34.981Z,7.23
2023-02-25T08:13:09.012Z,7.26
2023-02-25T08:15:42.635Z,7.15
2023-02-25T08:18:18.006Z,7.10
2023-02-25T08:20:55.916Z,7.16
2023-02-25T08:23:28.697Z,7.10
2023-02-25T08:26:02.047Z,7.07
2023-02-25T08:28:37.388Z,7.20
2023-02-25T08:31:12.130Z,7.18
2023-02-25T08:33:49.729Z,7.25
2023-02-25T08:36:26.576Z,7.25
2023-02-25T08:39:00.725Z,7.36
2023-02-25T08:41:33.404Z,7.44
2023-02-25T08:44:07.560Z,7.43
2023-02-25T08:46:41.790Z,7.52
2023-02-25T08:49:15.190Z,7.76
2023-02-25T08:51:50.824Z,7.79
2023-02-25T08:54:24.069Z,7.69
2023-02-25T08:56:57.242Z,7.66
2023-02-25T08:59:36.056Z,7.66
2023-02-25T09:02:15.193Z,7.60
2023-02-25T09:04:47.977Z,7.71
2023-02-25T09:07:22.041Z,7.74
2023-02-25T09:09:55.121Z,7.73
2023-02-25T09:12:27.982Z,7.75
2023-02-25T09:15:02.295Z,7.77
2023-02-25T09:17:35.090Z,7.79
2023-02-25T09:20:11.301Z,7.82
2023-02-25T09:22:44.283Z,7.82
2023-02-25T09:25:17.074Z,7.81
2023-02-25T09:27:49.803Z,7.89
2023-02-25T09:30:24.135Z,7.95
2023-02-25T09:32:56.970Z,7.84
2023-02-25T09:35:29.834Z,7.96
2023-02-25T09:38:02.498Z,8.02
2023-02-25T09:40:35.429Z,7.96
2023-02-25T09:43:16.061Z,8.03
2023-02-25T09:45:53.866Z,8.15
2023-02-25T09:48:30.568Z,8.10
2023-02-25T09:51:19.504Z,8.17
2023-02-25T09:53:56.819Z,8.25
2023-02-25T09:56:31.438Z,8.20
2023-02-25T09:59:11.585Z,8.24
2023-02-25T10:01:52.772Z,8.28
2023-02-25T10:04:33.145Z,8.30
2023-02-25T10:07:15.091Z,8.31
2023-02-25T10:09:54.322Z,8.42
2023-02-25T10:12:32.889Z,8.40
2023-02-25T10:15:23.222Z,8.40
2023-02-25T10:18:12.431Z,8.48
2023-02-25T10:20:53.000Z,8.41
2023-02-25T10:23:38.068Z,8.40
2023-02-25T10:26:17.861Z,8.37
2023-02-25T10:28:55.121Z,8.35
2023-02-25T10:31:28.452Z,8.45
2023-02-25T10:34:20.919Z,8.45
2023-02-25T10:36:56.442Z,8.44
2023-02-25T10:39:31.224Z,8.57
2023-02-25T10:42:04.360Z,8.56
2023-02-25T10:44:37.502Z,8.55
2023-02-25T10:47:15.092Z,8.66
2023-02-25T10:50:15.237Z,8.60
2023-02-25T10:53:00.660Z,8.63
2023-02-25T10:55:51.748Z,8.76
2023-02-25T10:58:29.416Z,8.84
2023-02-25T11:01:06.976Z,8.87
2023-02-25T11:03:46.446Z,8.93
2023-02-25T11:06:25.266Z,8.93
2023-02-25T11:09:00.204Z,9.01
2023-02-25T11:11:35.925Z,9.07
2023-02-25T11:14:16.009Z,9.12
2023-02-25T11:16:48.839Z,9.21
2023-02-25T11:19:26.770Z,9.29
2023-02-25T11:22:07.702Z,9.36
2023-02-25T11:24:42.912Z,9.39
2023-02-25T11:27:29.400Z,9.41
2023-02-25T11:30:07.464Z,9.47
2023-02-25T11:32:44.324Z,9.43
2023-02-25T11:35:20.741Z,9.50
2023-02-25T11:37:55.516Z,9.50
2023-02-25T11:40:31.121Z,9.48
2023-02-25T11:43:17.050Z,9.43
2023-02-25T11:45:56.526Z,9.36
2023-02-25T11:48:34.822Z,9.40
2023-02-25T11:51:16.276Z,9.25
2023-02-25T11:54:02.980Z,9.23
2023-02-25T11:56:39.416Z,9.26
2023-02-25T11:59:30.211Z,9.30
2023-02-25T12:02:21.648Z,9.25
2023-02-25T12:05:35.223Z,9.13
2023-02-25T12:08:21.967Z,9.10
2023-02-25T12:11:27.346Z,9.23
2023-02-25T12:14:24.565Z,9.19
2023-02-25T12:17:21.422Z,9.23
2023-02-25T12:20:30.982Z,9.33
2023-02-25T12:23:45.893Z,9.20
2023-02-25T12:26:33.284Z,9.16
2023-02-25T12:29:23.715Z,9.35
2023-02-25T12:32:18.689Z,9.47
2023-02-25T12:35:16.285Z,9.43
2023-02-25T12:38:17.041Z,9.42
2023-02-25T12:41:09.874Z,9.55
2023-02-25T12:43:50.744Z,9.53
2023-02-25T12:46:47.376Z,9.61
2023-02-25T12:49:49.181Z,9.62
2023-02-25T12:52:29.543Z,9.77
2023-02-25T12:55:22.839Z,9.70
2023-02-25T12:58:05.640Z,9.82
2023-02-25T13:01:02.919Z,9.82
2023-02-25T13:03:54.630Z,9.86
2023-02-25T13:06:56.846Z,9.97
2023-02-25T13:09:47.788Z,9.88
2023-02-25T13:12:44.641Z,10.05
2023-02-25T13:15:21.541Z,10.12
2023-02-25T13:18:13.260Z,10.17
2023-02-25T13:21:14.640Z,10.21
2023-02-25T13:24:11.723Z,10.33
2023-02-25T13:27:04.933Z,10.33
2023-02-25T13:29:52.499Z,10.36
2023-02-25T13:32:33.571Z,10.39
2023-02-25T13:35:29.150Z,10.42
2023-02-25T13:38:18.321Z,10.09
2023-02-25T13:41:01.917Z,10.14
2023-02-25T13:43:52.082Z,10.22
2023-02-25T13:46:47.593Z,10.21
2023-02-25T13:49:48.487Z,10.18
2023-02-25T13:52:55.355Z,10.04
2023-02-25T13:55:47.833Z,9.96
2023-02-25T13:58:43.866Z,9.90
2023-02-25T14:01:40.188Z,9.94
2023-02-25T14:04:40.724Z,9.84
2023-02-25T14:07:22.968Z,9.83
2023-02-25T14:10:13.395Z,9.91
2023-02-25T14:13:02.682Z,9.73
2023-02-25T14:15:48.265Z,9.66
2023-02-25T14:18:33.222Z,9.71
2023-02-25T14:21:40.009Z,9.65
2023-02-25T14:24:20.138Z,9.60
2023-02-25T14:27:03.382Z,9.61
2023-02-25T14:29:42.331Z,9.46
2023-02-25T14:32:28.387Z,9.42
2023-02-25T14:35:18.811Z,9.34
2023-02-25T14:38:04.104Z,9.31
2023-02-25T14:40:46.383Z,9.28
2023-02-25T14:43:32.259Z,9.24
2023-02-25T14:46:16.497Z,9.22
2023-02-25T14:49:00.028Z,9.12
2023-02-25T14:51:49.388Z,9.11
2023-02-25T14:54:48.460Z,9.09
2023-02-25T14:57:51.335Z,9.10
2023-02-25T15:00:45.641Z,9.04
2023-02-25T15:03:38.964Z,8.98
2023-02-25T15:06:32.162Z,9.00
2023-02-25T15:09:23.687Z,9.01
2023-02-25T15:12:27.837Z,8.94
2023-02-25T15:15:21.199Z,8.91
2023-02-25T15:18:17.613Z,8.88
2023-02-25T15:20:52.370Z,8.90
2023-02-25T15:23:50.309Z,8.90
2023-02-25T15:26:26.686Z,8.90
2023-02-25T15:28:59.984Z,8.85
2023-02-25T15:31:34.508Z,8.85
2023-02-25T15:34:34.936Z,8.85
2023-02-25T15:37:20.269Z,8.78
2023-02-25T15:39:56.448Z,8.80
2023-02-25T15:42:52.954Z,8.77
2023-02-25T15:45:38.229Z,8.75
2023-02-25T15:48:31.969Z,8.74
2023-02-25T15:51:10.324Z,8.70
2023-02-25T15:53:48.317Z,8.68
2023-02-25T15:56:56.926Z,8.71
2023-02-25T15:59:45.349Z,8.65
2023-02-25T16:02:46.422Z,8.67
2023-02-25T16:05:28.122Z,8.63
2023-02-25T16:08:14.206Z,8.60
2023-02-25T16:10:53.908Z,8.55
2023-02-25T16:13:38.744Z,8.54
2023-02-25T16:16:14.097Z,8.46
2023-02-25T16:18:50.434Z,8.46
2023-02-25T16:21:27.343Z,8.46
2023-02-25T16:24:01.724Z,8.44
2023-02-25T16:26:45.128Z,8.45
2023-02-25T16:29:35.117Z,8.39
2023-02-25T16:32:17.730Z,8.38
2023-02-25T16:34:56.229Z,8.33
2023-02-25T16:37:37.250Z,8.30
2023-02-25T16:40:15.889Z,8.29
2023-02-25T16:42:50.478Z,8.24
2023-02-25T16:45:28.228Z,8.22
2023-02-25T16:48:05.475Z,8.22
2023-02-25T16:50:38.378Z,8.22
2023-02-25T16:53:18.794Z,8.20
2023-02-25T16:55:58.239Z,8.13
2023-02-25T16:58:32.469Z,8.18
2023-02-25T17:01:07.608Z,8.15
2023-02-25T17:03:47.447Z,8.06
2023-02-25T17:06:21.311Z,8.06
2023-02-25T17:08:54.160Z,8.01
2023-02-25T17:11:27.648Z,8.00
2023-02-25T17:14:05.478Z,7.90
2023-02-25T17:16:43.543Z,7.94
2023-02-25T17:19:20.689Z,7.90
2023-02-25T17:21:56.930Z,7.90
2023-02-25T17:24:33.152Z,7.88
2023-02-25T17:27:12.350Z,7.87
2023-02-25T17:29:46.675Z,7.83
2023-02-25T17:32:22.577Z,7.80
2023-02-25T17:34:58.880Z,7.70
2023-02-25T17:37:33.021Z,7.61
2023-02-25T17:40:10.465Z,7.62
2023-02-25T17:42:44.235Z,7.61
2023-02-25T17:45:44.537Z,7.43
2023-02-25T17:48:19.743Z,7.44
2023-02-25T17:50:55.678Z,7.44
2023-02-25T17:53:40.462Z,7.39
2023-02-25T17:56:25.014Z,7.40
2023-02-25T17:59:02.633Z,7.28
2023-02-25T18:01:53.976Z,7.34
2023-02-25T18:04:35.131Z,7.32
2023-02-25T18:07:21.702Z,7.38
2023-02-25T18:09:54.700Z,7.33
2023-02-25T18:12:29.014Z,7.35
2023-02-25T18:15:04.150Z,7.30
2023-02-25T18:17:40.777Z,7.28
2023-02-25T18:20:29.298Z,7.28
2023-02-25T18:23:03.550Z,7.28
2023-02-25T18:25:38.447Z,7.24
2023-02-25T18:28:16.741Z,7.31
2023-02-25T18:30:51.286Z,7.20
2023-02-25T18:33:25.536Z,7.23
2023-02-25T18:35:59.347Z,7.23
2023-02-25T18:38:32.869Z,7.27
2023-02-25T18:41:07.237Z,7.19
2023-02-25T18:43:42.063Z,7.22
2023-02-25T18:46:15.707Z,7.14
2023-02-25T18:48:50.053Z,7.18
2023-02-25T18:51:23.799Z,7.14
2023-02-25T18:53:56.821Z,7.15
2023-02-25T18:56:29.531Z,7.07
2023-02-25T18:59:02.270Z,7.03
2023-02-25T19:01:35.594Z,7.13
2023-02-25T19:04:15.981Z,7.06
2023-02-25T19:06:49.867Z,7.09
2023-02-25T19:09:24.947Z,7.09
2023-02-25T19:11:57.776Z,7.00
2023-02-25T19:14:30.595Z,7.04
2023-02-25T19:17:03.813Z,7.09
2023-02-25T19:19:38.366Z,7.08
2023-02-25T19:22:12.781Z,7.09
2023-02-25T19:24:48.291Z,7.05
2023-02-25T19:27:23.397Z,7.04
2023-02-25T19:29:59.339Z,6.99
2023-02-25T19:32:32.475Z,7.02
2023-02-25T19:35:10.453Z,6.99
2023-02-25T19:37:43.928Z,6.98
2023-02-25T19:40:17.549Z,6.97
2023-02-25T19:42:50.617Z,6.96
2023-02-25T19:45:25.373Z,6.91
2023-02-25T19:47:58.552Z,6.97
2023-02-25T19:50:34.912Z,6.86
2023-02-25T19:53:07.874Z,6.77
2023-02-25T19:55:43.274Z,6.83
2023-02-25T19:58:16.593Z,6.87
2023-02-25T20:00:49.933Z,6.80
2023-02-25T20:03:23.134Z,6.79
2023-02-25T20:05:57.670Z,6.79
2023-02-25T20:08:30.936Z,6.84
2023-02-25T20:11:04.291Z,6.75
2023-02-25T20:13:38.397Z,6.85
2023-02-25T20:16:11.612Z,6.81
2023-02-25T20:18:44.520Z,6.84
2023-02-25T20:21:19.115Z,6.78
2023-02-25T20:23:52.410Z,6.73
2023-02-25T20:26:25.952Z,6.73
2023-02-25T20:28:58.926Z,6.72
2023-02-25T20:31:31.998Z,6.69
2023-02-25T20:34:05.871Z,6.68
2023-02-25T20:36:45.019Z,6.71
2023-02-25T20:39:34.477Z,6.64
2023-02-25T20:42:11.845Z,6.70
2023-02-25T20:44:45.937Z,6.67
2023-02-25T20:47:21.896Z,6.66
2023-02-25T20:49:56.479Z,6.71
2023-02-25T20:52:30.966Z,6.61
2023-02-25T20:55:06.624Z,6.58
2023-02-25T20:57:39.857Z,6.63
2023-02-25T21:00:16.440Z,6.59
2023-02-25T21:02:49.588Z,6.58
2023-02-25T21:05:22.454Z,6.58
2023-02-25T21:07:57.967Z,6.51
2023-02-25T21:10:31.406Z,6.52
2023-02-25T21:13:04.742Z,6.54
2023-02-25T21:15:37.987Z,6.49
2023-02-25T21:18:11.682Z,6.52
2023-02-25T21:20:44.582Z,6.50
2023-02-25T21:23:19.130Z,6.52
2023-02-25T21:25:52.125Z,6.51
2023-02-25T21:28:25.581Z,6.53
2023-02-25T21:31:01.789Z,6.45
2023-02-25T21:33:35.138Z,6.49
2023-02-25T21:36:12.414Z,6.39
2023-02-25T21:38:46.845Z,6.51
2023-02-25T21:41:20.274Z,6.40
2023-02-25T21:43:54.055Z,6.41
2023-02-25T21:46:28.988Z,6.45
2023-02-25T21:49:02.345Z,6.46
2023-02-25T21:51:44.702Z,6.41
2023-02-25T21:54:19.648Z,6.35
2023-02-25T21:56:53.087Z,6.42
2023-02-25T21:59:27.876Z,6.37
2023-02-25T22:02:01.469Z,6.36
2023-02-25T22:04:34.667Z,6.27
2023-02-25T22:07:07.998Z,6.28
2023-02-25T22:09:43.509Z,6.26
2023-02-25T22:12:36.106Z,6.26
2023-02-25T22:15:19.531Z,6.25
2023-02-25T22:17:53.211Z,6.28
2023-02-25T22:20:26.963Z,6.27
2023-02-25T22:23:00.435Z,6.30
2023-02-25T22:25:34.863Z,6.19
2023-02-25T22:28:08.134Z,6.23
2023-02-25T22:30:41.961Z,6.21
2023-02-25T22:33:18.506Z,6.25
2023-02-25T22:35:57.708Z,6.23
2023-02-25T22:38:32.105Z,6.23
2023-02-25T22:41:14.618Z,6.24
2023-02-25T22:43:50.619Z,6.20
2023-02-25T22:46:26.053Z,6.21
2023-02-25T22:48:59.800Z,6.29
2023-02-25T22:51:36.026Z,6.22
2023-02-25T22:54:09.553Z,6.23
2023-02-25T22:56:45.161Z,6.16
2023-02-25T22:59:18.912Z,6.14
2023-02-25T23:01:53.201Z,6.15
2023-02-25T23:04:28.031Z,6.16
2023-02-25T23:07:01.740Z,6.19
2023-02-25T23:09:35.220Z,6.18
2023-02-25T23:12:10.318Z,6.16
2023-02-25T23:14:43.678Z,6.11
2023-02-25T23:17:19.943Z,6.13
2023-02-25T23:19:58.820Z,6.08
2023-02-25T23:22:34.247Z,6.06
2023-02-25T23:25:10.322Z,6.18
2023-02-25T23:27:46.080Z,6.21
2023-02-25T23:30:19.908Z,6.19
2023-02-25T23:32:53.347Z,6.20
2023-02-25T23:35:27.429Z,6.18
2023-02-25T23:38:00.661Z,6.17
2023-02-25T23:40:33.820Z,6.17
2023-02-25T23:43:10.919Z,6.16
2023-02-25T23:45:46.855Z,6.13
2023-02-25T23:48:21.122Z,6.06
2023-02-25T23:50:54.496Z,5.98
2023-02-25T23:53:28.163Z,6.04
2023-02-25T23:56:06.529Z,6.04
2023-02-25T23:58:41.810Z,6.04
